MAINE99 KBGR-KPSM
Flight info
| Callsign | MAINE99 |
|---|---|
| Flight time | 3h 25m |
| Altitude | 28000 |
| Route | AUG RUT SYR087075 CON |
| Aircraft | K35R/H-SDE3FGHIM1M2RWXY/LB1 |
Departure
| Time | 2026-04-24 19:32 |
|---|---|
| Airport | Bangor International Airport (KBGR) |
Arrival
| Time | 2026-04-24 22:57 |
|---|---|
| Airport | Portsmouth International Airport at Pease (KPSM) |
| Time | Latitude | Longitude | Altitude | Speed | Heading |
|---|---|---|---|---|---|
| 2026-04-24 19:23 | 44.81084 | -68.82445 | 181 ft | 0 kts | 44° |
| 2026-04-24 19:27 | 44.81096 | -68.82422 | 181 ft | 4 kts | 73° |
| 2026-04-24 19:27 | 44.81089 | -68.82392 | 181 ft | 3 kts | 136° |
| 2026-04-24 19:27 | 44.81061 | -68.82395 | 181 ft | 7 kts | 222° |
| 2026-04-24 19:27 | 44.81009 | -68.82471 | 181 ft | 12 kts | 226° |
| 2026-04-24 19:28 | 44.80953 | -68.82505 | 181 ft | 9 kts | 163° |
| 2026-04-24 19:28 | 44.80899 | -68.82433 | 180 ft | 13 kts | 130° |
| 2026-04-24 19:28 | 44.80825 | -68.82322 | 179 ft | 18 kts | 136° |
| 2026-04-24 19:28 | 44.80718 | -68.82173 | 178 ft | 24 kts | 134° |
| 2026-04-24 19:29 | 44.80457 | -68.81794 | 174 ft | 30 kts | 135° |
| 2026-04-24 19:29 | 44.80303 | -68.81573 | 172 ft | 33 kts | 133° |
| 2026-04-24 19:29 | 44.80151 | -68.81354 | 170 ft | 26 kts | 134° |
| 2026-04-24 19:30 | 44.80019 | -68.81162 | 168 ft | 29 kts | 134° |
| 2026-04-24 19:30 | 44.79890 | -68.81006 | 167 ft | 19 kts | 165° |
| 2026-04-24 19:30 | 44.79782 | -68.81082 | 167 ft | 20 kts | 225° |
| 2026-04-24 19:30 | 44.79713 | -68.81262 | 169 ft | 22 kts | 272° |
| 2026-04-24 19:31 | 44.79794 | -68.81445 | 168 ft | 23 kts | 314° |
| 2026-04-24 19:31 | 44.79919 | -68.81622 | 170 ft | 42 kts | 315° |
| 2026-04-24 19:31 | 44.80382 | -68.82293 | 179 ft | 145 kts | 315° |
| 2026-04-24 19:31 | 44.81237 | -68.83538 | 472 ft | 211 kts | 318° |
| 2026-04-24 19:32 | 44.82410 | -68.85151 | 1821 ft | 236 kts | 316° |
| 2026-04-24 19:32 | 44.83310 | -68.87007 | 4010 ft | 240 kts | 296° |
| 2026-04-24 19:32 | 44.83601 | -68.89399 | 5501 ft | 255 kts | 271° |
| 2026-04-24 19:32 | 44.83170 | -68.91832 | 7016 ft | 269 kts | 247° |
| 2026-04-24 19:33 | 44.82069 | -68.94051 | 8431 ft | 282 kts | 234° |
| 2026-04-24 19:33 | 44.80800 | -68.96198 | 9854 ft | 290 kts | 233° |
| 2026-04-24 19:33 | 44.79470 | -68.98438 | 10845 ft | 310 kts | 234° |
| 2026-04-24 19:33 | 44.78059 | -69.00900 | 11521 ft | 338 kts | 235° |
| 2026-04-24 19:34 | 44.76528 | -69.03585 | 12138 ft | 365 kts | 234° |
| 2026-04-24 19:34 | 44.74867 | -69.06459 | 12623 ft | 392 kts | 234° |
| 2026-04-24 19:34 | 44.73085 | -69.09525 | 13019 ft | 417 kts | 234° |
| 2026-04-24 19:34 | 44.71261 | -69.12665 | 13936 ft | 423 kts | 234° |
| 2026-04-24 19:35 | 44.69383 | -69.15907 | 14724 ft | 431 kts | 235° |
| 2026-04-24 19:35 | 44.67483 | -69.19188 | 15547 ft | 437 kts | 235° |
| 2026-04-24 19:35 | 44.65551 | -69.22512 | 16543 ft | 438 kts | 236° |
| 2026-04-24 19:35 | 44.63624 | -69.25817 | 17610 ft | 438 kts | 237° |
| 2026-04-24 19:36 | 44.61723 | -69.29085 | 18598 ft | 438 kts | 237° |
| 2026-04-24 19:36 | 44.59803 | -69.32382 | 19606 ft | 435 kts | 237° |
| 2026-04-24 19:36 | 44.57891 | -69.35656 | 20611 ft | 432 kts | 238° |
| 2026-04-24 19:36 | 44.56017 | -69.38861 | 21569 ft | 430 kts | 238° |
| 2026-04-24 19:37 | 44.54128 | -69.42091 | 22546 ft | 427 kts | 238° |
| 2026-04-24 19:37 | 44.52250 | -69.45301 | 23498 ft | 425 kts | 238° |
| 2026-04-24 19:37 | 44.50437 | -69.48394 | 24261 ft | 423 kts | 238° |
| 2026-04-24 19:37 | 44.48575 | -69.51565 | 25025 ft | 420 kts | 239° |
| 2026-04-24 19:38 | 44.46728 | -69.54707 | 25850 ft | 417 kts | 239° |
| 2026-04-24 19:38 | 44.44890 | -69.57834 | 26673 ft | 415 kts | 239° |
| 2026-04-24 19:38 | 44.43062 | -69.60940 | 27522 ft | 413 kts | 239° |
| 2026-04-24 19:38 | 44.41220 | -69.64075 | 27901 ft | 422 kts | 239° |
| 2026-04-24 19:39 | 44.39388 | -69.67175 | 27913 ft | 415 kts | 239° |
| 2026-04-24 19:39 | 44.37556 | -69.70260 | 27919 ft | 411 kts | 239° |
| 2026-04-24 19:39 | 44.35738 | -69.73340 | 27914 ft | 410 kts | 239° |
| 2026-04-24 19:39 | 44.33967 | -69.76343 | 27894 ft | 410 kts | 240° |
| 2026-04-24 19:40 | 44.32356 | -69.79550 | 27934 ft | 398 kts | 250° |
| 2026-04-24 19:40 | 44.31222 | -69.83022 | 27906 ft | 388 kts | 261° |
| 2026-04-24 19:40 | 44.30377 | -69.86583 | 27927 ft | 389 kts | 261° |
| 2026-04-24 19:40 | 44.29528 | -69.90179 | 27936 ft | 390 kts | 261° |
| 2026-04-24 19:41 | 44.28696 | -69.93704 | 27934 ft | 390 kts | 261° |
| 2026-04-24 19:41 | 44.27848 | -69.97300 | 27932 ft | 390 kts | 261° |
| 2026-04-24 19:41 | 44.27008 | -70.00852 | 27942 ft | 391 kts | 261° |
| 2026-04-24 19:41 | 44.26155 | -70.04451 | 27931 ft | 391 kts | 261° |
| 2026-04-24 19:42 | 44.25301 | -70.08045 | 27931 ft | 391 kts | 261° |
| 2026-04-24 19:42 | 44.24445 | -70.11645 | 27938 ft | 391 kts | 261° |
| 2026-04-24 19:42 | 44.23598 | -70.15204 | 27931 ft | 391 kts | 261° |
| 2026-04-24 19:42 | 44.22739 | -70.18811 | 27926 ft | 392 kts | 261° |
| 2026-04-24 19:43 | 44.21879 | -70.22401 | 27917 ft | 389 kts | 261° |
| 2026-04-24 19:43 | 44.21024 | -70.25973 | 27912 ft | 389 kts | 261° |
| 2026-04-24 19:43 | 44.20180 | -70.29503 | 27923 ft | 389 kts | 261° |
| 2026-04-24 19:43 | 44.19323 | -70.33072 | 27923 ft | 388 kts | 261° |
| 2026-04-24 19:44 | 44.18464 | -70.36646 | 27922 ft | 389 kts | 261° |
| 2026-04-24 19:44 | 44.17606 | -70.40208 | 27923 ft | 389 kts | 261° |
| 2026-04-24 19:44 | 44.16745 | -70.43782 | 27924 ft | 389 kts | 261° |
| 2026-04-24 19:44 | 44.15881 | -70.47359 | 27923 ft | 390 kts | 261° |
| 2026-04-24 19:45 | 44.15016 | -70.50932 | 27915 ft | 389 kts | 261° |
| 2026-04-24 19:45 | 44.14156 | -70.54478 | 27914 ft | 389 kts | 261° |
| 2026-04-24 19:45 | 44.13288 | -70.58058 | 27911 ft | 388 kts | 261° |
| 2026-04-24 19:45 | 44.12434 | -70.61572 | 27910 ft | 388 kts | 261° |
| 2026-04-24 19:46 | 44.11580 | -70.65081 | 27911 ft | 389 kts | 261° |
| 2026-04-24 19:46 | 44.10712 | -70.68640 | 27906 ft | 387 kts | 261° |
| 2026-04-24 19:46 | 44.09846 | -70.72184 | 27903 ft | 387 kts | 261° |
| 2026-04-24 19:46 | 44.08979 | -70.75735 | 27903 ft | 388 kts | 261° |
| 2026-04-24 19:47 | 44.08110 | -70.79287 | 27900 ft | 389 kts | 261° |
| 2026-04-24 19:47 | 44.07237 | -70.82841 | 27901 ft | 389 kts | 261° |
| 2026-04-24 19:47 | 44.06362 | -70.86398 | 27902 ft | 388 kts | 261° |
| 2026-04-24 19:47 | 44.05488 | -70.89948 | 27901 ft | 388 kts | 261° |
| 2026-04-24 19:48 | 44.04627 | -70.93445 | 27904 ft | 388 kts | 261° |
| 2026-04-24 19:48 | 44.03751 | -70.96994 | 27904 ft | 388 kts | 261° |
| 2026-04-24 19:48 | 44.01995 | -71.04087 | 27905 ft | 388 kts | 261° |
| 2026-04-24 19:49 | 44.00236 | -71.11177 | 27903 ft | 389 kts | 261° |
| 2026-04-24 19:49 | 43.98474 | -71.18244 | 27904 ft | 386 kts | 261° |
| 2026-04-24 19:50 | 43.95845 | -71.28773 | 27908 ft | 387 kts | 261° |
| 2026-04-24 19:50 | 43.94960 | -71.32304 | 27906 ft | 387 kts | 261° |
| 2026-04-24 19:51 | 43.93191 | -71.39339 | 27903 ft | 386 kts | 261° |
| 2026-04-24 19:51 | 43.92306 | -71.42857 | 27899 ft | 386 kts | 261° |
| 2026-04-24 19:52 | 43.90531 | -71.49889 | 27914 ft | 387 kts | 261° |
| 2026-04-24 19:52 | 43.89641 | -71.53409 | 27909 ft | 387 kts | 261° |
| 2026-04-24 19:52 | 43.88749 | -71.56927 | 27908 ft | 387 kts | 261° |
| 2026-04-24 19:52 | 43.87868 | -71.60400 | 27884 ft | 387 kts | 260° |
| 2026-04-24 19:53 | 43.86975 | -71.63910 | 27908 ft | 386 kts | 260° |
| 2026-04-24 19:53 | 43.86082 | -71.67422 | 27907 ft | 387 kts | 260° |
| 2026-04-24 19:53 | 43.84292 | -71.74439 | 27905 ft | 386 kts | 260° |
| 2026-04-24 19:54 | 43.83396 | -71.77938 | 27917 ft | 385 kts | 260° |
| 2026-04-24 19:54 | 43.82501 | -71.81441 | 27918 ft | 387 kts | 259° |
| 2026-04-24 19:54 | 43.81602 | -71.84950 | 27921 ft | 387 kts | 259° |
| 2026-04-24 19:54 | 43.80713 | -71.88409 | 27923 ft | 387 kts | 259° |
| 2026-04-24 19:55 | 43.80103 | -71.90777 | 27920 ft | 386 kts | 259° |
| 2026-04-24 19:55 | 43.78910 | -71.95413 | 27921 ft | 386 kts | 259° |
| 2026-04-24 19:55 | 43.78011 | -71.98899 | 27920 ft | 385 kts | 259° |
| 2026-04-24 19:55 | 43.77107 | -72.02396 | 27920 ft | 385 kts | 259° |
| 2026-04-24 19:56 | 43.76205 | -72.05883 | 27896 ft | 385 kts | 259° |
| 2026-04-24 19:56 | 43.75304 | -72.09361 | 27912 ft | 384 kts | 259° |
| 2026-04-24 19:56 | 43.74414 | -72.12793 | 27913 ft | 385 kts | 259° |
| 2026-04-24 19:56 | 43.73508 | -72.16281 | 27913 ft | 386 kts | 259° |
| 2026-04-24 19:57 | 43.72600 | -72.19769 | 27915 ft | 386 kts | 258° |
| 2026-04-24 19:57 | 43.71689 | -72.23266 | 27919 ft | 387 kts | 258° |
| 2026-04-24 19:57 | 43.70776 | -72.26760 | 27918 ft | 386 kts | 258° |
| 2026-04-24 19:57 | 43.69886 | -72.30166 | 27922 ft | 386 kts | 258° |
| 2026-04-24 19:58 | 43.68972 | -72.33660 | 27917 ft | 387 kts | 258° |
| 2026-04-24 19:58 | 43.68055 | -72.37157 | 27919 ft | 387 kts | 258° |
| 2026-04-24 19:58 | 43.67138 | -72.40649 | 27919 ft | 387 kts | 258° |
| 2026-04-24 19:58 | 43.66220 | -72.44139 | 27914 ft | 387 kts | 258° |
| 2026-04-24 19:59 | 43.65315 | -72.47579 | 27914 ft | 386 kts | 259° |
| 2026-04-24 19:59 | 43.64395 | -72.51067 | 27920 ft | 387 kts | 258° |
| 2026-04-24 19:59 | 43.63476 | -72.54548 | 27912 ft | 385 kts | 258° |
| 2026-04-24 19:59 | 43.62559 | -72.58012 | 27911 ft | 385 kts | 258° |
| 2026-04-24 20:00 | 43.61640 | -72.61487 | 27896 ft | 385 kts | 258° |
| 2026-04-24 20:00 | 43.60718 | -72.64971 | 27920 ft | 388 kts | 258° |
| 2026-04-24 20:00 | 43.59791 | -72.68453 | 27921 ft | 386 kts | 257° |
| 2026-04-24 20:00 | 43.58861 | -72.71946 | 27933 ft | 388 kts | 257° |
| 2026-04-24 20:01 | 43.57933 | -72.75431 | 27935 ft | 387 kts | 257° |
| 2026-04-24 20:01 | 43.57015 | -72.78874 | 27934 ft | 387 kts | 257° |
| 2026-04-24 20:01 | 43.56085 | -72.82355 | 27933 ft | 387 kts | 257° |
| 2026-04-24 20:01 | 43.55154 | -72.85836 | 27935 ft | 387 kts | 257° |
| 2026-04-24 20:02 | 43.54537 | -72.88142 | 27936 ft | 388 kts | 257° |
| 2026-04-24 20:02 | 43.53294 | -72.92806 | 27938 ft | 386 kts | 259° |
| 2026-04-24 20:02 | 43.52697 | -72.96264 | 27925 ft | 378 kts | 269° |
| 2026-04-24 20:02 | 43.52482 | -72.99874 | 27934 ft | 379 kts | 273° |
| 2026-04-24 20:03 | 43.52328 | -73.03492 | 27949 ft | 379 kts | 273° |
| 2026-04-24 20:03 | 43.52172 | -73.07121 | 27947 ft | 379 kts | 273° |
| 2026-04-24 20:03 | 43.52021 | -73.10689 | 27936 ft | 378 kts | 273° |
| 2026-04-24 20:03 | 43.51868 | -73.14307 | 27956 ft | 379 kts | 273° |
| 2026-04-24 20:04 | 43.51712 | -73.17931 | 27952 ft | 379 kts | 273° |
| 2026-04-24 20:04 | 43.51554 | -73.21553 | 27955 ft | 379 kts | 273° |
| 2026-04-24 20:04 | 43.51396 | -73.25176 | 27942 ft | 379 kts | 273° |
| 2026-04-24 20:04 | 43.51237 | -73.28791 | 27939 ft | 378 kts | 273° |
| 2026-04-24 20:05 | 43.51077 | -73.32406 | 27936 ft | 379 kts | 272° |
| 2026-04-24 20:05 | 43.50917 | -73.35991 | 27934 ft | 380 kts | 272° |
| 2026-04-24 20:05 | 43.50753 | -73.39624 | 27930 ft | 380 kts | 272° |
| 2026-04-24 20:05 | 43.50588 | -73.43253 | 27926 ft | 379 kts | 272° |
| 2026-04-24 20:06 | 43.50423 | -73.46874 | 27924 ft | 379 kts | 272° |
| 2026-04-24 20:06 | 43.50257 | -73.50503 | 27924 ft | 379 kts | 272° |
| 2026-04-24 20:06 | 43.50089 | -73.54130 | 27921 ft | 380 kts | 272° |
| 2026-04-24 20:06 | 43.49919 | -73.57763 | 27920 ft | 380 kts | 272° |
| 2026-04-24 20:07 | 43.49807 | -73.60167 | 27920 ft | 380 kts | 272° |
| 2026-04-24 20:07 | 43.49577 | -73.65028 | 27921 ft | 380 kts | 272° |
| 2026-04-24 20:07 | 43.49406 | -73.68605 | 27915 ft | 378 kts | 273° |
| 2026-04-24 20:07 | 43.49237 | -73.72132 | 27918 ft | 378 kts | 273° |
| 2026-04-24 20:08 | 43.49065 | -73.75745 | 27917 ft | 378 kts | 273° |
| 2026-04-24 20:08 | 43.48889 | -73.79363 | 27911 ft | 378 kts | 273° |
| 2026-04-24 20:08 | 43.48712 | -73.82971 | 27911 ft | 377 kts | 273° |
| 2026-04-24 20:08 | 43.48535 | -73.86581 | 27913 ft | 379 kts | 273° |
| 2026-04-24 20:09 | 43.48358 | -73.90199 | 27913 ft | 379 kts | 273° |
| 2026-04-24 20:09 | 43.48177 | -73.93816 | 27913 ft | 379 kts | 273° |
| 2026-04-24 20:09 | 43.47995 | -73.97437 | 27897 ft | 379 kts | 274° |
| 2026-04-24 20:09 | 43.47814 | -74.00976 | 27889 ft | 373 kts | 275° |
| 2026-04-24 20:10 | 43.47631 | -74.04472 | 27917 ft | 362 kts | 276° |
| 2026-04-24 20:10 | 43.47466 | -74.07866 | 27911 ft | 366 kts | 276° |
| 2026-04-24 20:10 | 43.47292 | -74.11375 | 27912 ft | 366 kts | 275° |
| 2026-04-24 20:10 | 43.47106 | -74.14881 | 27914 ft | 367 kts | 275° |
| 2026-04-24 20:11 | 43.46922 | -74.18391 | 27915 ft | 368 kts | 275° |
| 2026-04-24 20:11 | 43.46740 | -74.21901 | 27918 ft | 368 kts | 275° |
| 2026-04-24 20:11 | 43.46558 | -74.25372 | 27917 ft | 368 kts | 275° |
| 2026-04-24 20:11 | 43.46372 | -74.28877 | 27916 ft | 368 kts | 275° |
| 2026-04-24 20:12 | 43.46186 | -74.32390 | 27919 ft | 368 kts | 275° |
| 2026-04-24 20:12 | 43.45997 | -74.35909 | 27875 ft | 369 kts | 275° |
| 2026-04-24 20:12 | 43.45807 | -74.39399 | 27912 ft | 364 kts | 276° |
| 2026-04-24 20:12 | 43.45620 | -74.42872 | 27907 ft | 363 kts | 276° |
| 2026-04-24 20:13 | 43.45435 | -74.46345 | 27913 ft | 365 kts | 276° |
| 2026-04-24 20:13 | 43.45244 | -74.49827 | 27915 ft | 365 kts | 276° |
| 2026-04-24 20:13 | 43.45051 | -74.53314 | 27916 ft | 366 kts | 276° |
| 2026-04-24 20:13 | 43.44939 | -74.56741 | 27915 ft | 363 kts | 278° |
| 2026-04-24 20:14 | 43.44863 | -74.60221 | 27913 ft | 364 kts | 278° |
| 2026-04-24 20:14 | 43.44782 | -74.63701 | 27910 ft | 364 kts | 278° |
| 2026-04-24 20:14 | 43.44695 | -74.67174 | 27921 ft | 363 kts | 278° |
| 2026-04-24 20:14 | 43.44611 | -74.70638 | 27920 ft | 362 kts | 278° |
| 2026-04-24 20:15 | 43.44527 | -74.74107 | 27919 ft | 363 kts | 278° |
| 2026-04-24 20:15 | 43.44442 | -74.77578 | 27917 ft | 363 kts | 278° |
| 2026-04-24 20:15 | 43.44354 | -74.81046 | 27922 ft | 363 kts | 278° |
| 2026-04-24 20:15 | 43.44266 | -74.84470 | 27922 ft | 363 kts | 278° |
| 2026-04-24 20:16 | 43.44176 | -74.87935 | 27923 ft | 363 kts | 278° |
| 2026-04-24 20:16 | 43.44087 | -74.91408 | 27922 ft | 363 kts | 278° |
| 2026-04-24 20:16 | 43.43996 | -74.94884 | 27923 ft | 364 kts | 278° |
| 2026-04-24 20:16 | 43.43902 | -74.98369 | 27925 ft | 364 kts | 278° |
| 2026-04-24 20:17 | 43.43807 | -75.01843 | 27924 ft | 364 kts | 278° |
| 2026-04-24 20:17 | 43.43618 | -75.08785 | 27924 ft | 366 kts | 277° |
| 2026-04-24 20:17 | 43.43522 | -75.12290 | 27923 ft | 367 kts | 277° |
| 2026-04-24 20:18 | 43.43455 | -75.14607 | 27923 ft | 366 kts | 277° |
| 2026-04-24 20:18 | 43.43322 | -75.19240 | 27924 ft | 366 kts | 277° |
| 2026-04-24 20:18 | 43.43224 | -75.22741 | 27924 ft | 365 kts | 279° |
| 2026-04-24 20:18 | 43.43357 | -75.26182 | 27934 ft | 356 kts | 286° |
| 2026-04-24 20:19 | 43.43831 | -75.29490 | 27936 ft | 350 kts | 293° |
| 2026-04-24 20:19 | 43.44618 | -75.32639 | 27940 ft | 346 kts | 300° |
| 2026-04-24 20:19 | 43.45693 | -75.35578 | 27937 ft | 343 kts | 306° |
| 2026-04-24 20:19 | 43.47014 | -75.38235 | 27941 ft | 339 kts | 312° |
| 2026-04-24 20:20 | 43.48587 | -75.40645 | 27954 ft | 338 kts | 318° |
| 2026-04-24 20:20 | 43.50369 | -75.42727 | 27891 ft | 335 kts | 324° |
| 2026-04-24 20:20 | 43.52346 | -75.44478 | 27932 ft | 341 kts | 330° |
| 2026-04-24 20:20 | 43.54489 | -75.45860 | 27945 ft | 340 kts | 337° |
| 2026-04-24 20:21 | 43.56756 | -75.46840 | 27937 ft | 343 kts | 343° |
| 2026-04-24 20:21 | 43.59117 | -75.47393 | 27941 ft | 346 kts | 349° |
| 2026-04-24 20:21 | 43.61528 | -75.47499 | 27949 ft | 349 kts | 356° |
| 2026-04-24 20:21 | 43.63963 | -75.47143 | 27944 ft | 355 kts | 3° |
| 2026-04-24 20:22 | 43.66341 | -75.46321 | 27949 ft | 360 kts | 9° |
| 2026-04-24 20:22 | 43.68685 | -75.45005 | 27961 ft | 368 kts | 17° |
| 2026-04-24 20:22 | 43.70904 | -75.43201 | 27946 ft | 374 kts | 24° |
| 2026-04-24 20:22 | 43.72955 | -75.40913 | 27939 ft | 384 kts | 32° |
| 2026-04-24 20:23 | 43.74769 | -75.38164 | 27941 ft | 392 kts | 40° |
| 2026-04-24 20:23 | 43.76294 | -75.34983 | 27943 ft | 403 kts | 49° |
| 2026-04-24 20:23 | 43.77469 | -75.31405 | 27939 ft | 414 kts | 59° |
| 2026-04-24 20:23 | 43.78227 | -75.27504 | 27941 ft | 426 kts | 69° |
| 2026-04-24 20:24 | 43.78471 | -75.24790 | 27940 ft | 433 kts | 76° |
| 2026-04-24 20:24 | 43.78275 | -75.19162 | 27939 ft | 447 kts | 91° |
| 2026-04-24 20:24 | 43.77502 | -75.15005 | 27956 ft | 458 kts | 102° |
| 2026-04-24 20:24 | 43.76160 | -75.10971 | 27952 ft | 468 kts | 115° |
| 2026-04-24 20:25 | 43.74264 | -75.07263 | 27935 ft | 475 kts | 128° |
| 2026-04-24 20:25 | 43.72023 | -75.03894 | 27944 ft | 475 kts | 130° |
| 2026-04-24 20:25 | 43.69771 | -75.00569 | 27944 ft | 473 kts | 130° |
| 2026-04-24 20:25 | 43.67510 | -74.97264 | 27945 ft | 474 kts | 130° |
| 2026-04-24 20:26 | 43.65247 | -74.93949 | 27944 ft | 474 kts | 130° |
| 2026-04-24 20:26 | 43.62994 | -74.90635 | 27940 ft | 474 kts | 130° |
| 2026-04-24 20:26 | 43.60736 | -74.87317 | 27939 ft | 474 kts | 130° |
| 2026-04-24 20:26 | 43.58498 | -74.84046 | 27932 ft | 476 kts | 130° |
| 2026-04-24 20:27 | 43.56223 | -74.80726 | 27928 ft | 477 kts | 130° |
| 2026-04-24 20:27 | 43.53943 | -74.77396 | 27924 ft | 477 kts | 130° |
| 2026-04-24 20:27 | 43.51664 | -74.74070 | 27921 ft | 478 kts | 130° |
| 2026-04-24 20:27 | 43.49391 | -74.70722 | 27925 ft | 476 kts | 127° |
| 2026-04-24 20:28 | 43.47488 | -74.67046 | 27942 ft | 469 kts | 114° |
| 2026-04-24 20:28 | 43.46128 | -74.63025 | 27923 ft | 459 kts | 101° |
| 2026-04-24 20:28 | 43.45330 | -74.58831 | 27932 ft | 447 kts | 90° |
| 2026-04-24 20:28 | 43.45081 | -74.54689 | 27931 ft | 434 kts | 78° |
| 2026-04-24 20:29 | 43.45184 | -74.51920 | 27926 ft | 426 kts | 73° |
| 2026-04-24 20:29 | 43.45971 | -74.46747 | 27926 ft | 410 kts | 59° |
| 2026-04-24 20:29 | 43.47057 | -74.43186 | 27936 ft | 399 kts | 50° |
| 2026-04-24 20:29 | 43.48500 | -74.39982 | 27936 ft | 389 kts | 41° |
| 2026-04-24 20:30 | 43.50239 | -74.37191 | 27929 ft | 379 kts | 32° |
| 2026-04-24 20:30 | 43.52213 | -74.34844 | 27950 ft | 374 kts | 25° |
| 2026-04-24 20:30 | 43.54406 | -74.32934 | 27931 ft | 371 kts | 19° |
| 2026-04-24 20:30 | 43.56747 | -74.31501 | 27934 ft | 365 kts | 11° |
| 2026-04-24 20:31 | 43.59136 | -74.30571 | 27932 ft | 360 kts | 4° |
| 2026-04-24 20:31 | 43.61598 | -74.30113 | 27932 ft | 354 kts | 357° |
| 2026-04-24 20:31 | 43.64048 | -74.30135 | 27934 ft | 351 kts | 351° |
| 2026-04-24 20:31 | 43.66453 | -74.30619 | 27934 ft | 349 kts | 344° |
| 2026-04-24 20:32 | 43.68776 | -74.31550 | 27938 ft | 347 kts | 337° |
| 2026-04-24 20:32 | 43.70974 | -74.32905 | 27940 ft | 345 kts | 330° |
| 2026-04-24 20:32 | 43.73010 | -74.34654 | 27931 ft | 346 kts | 324° |
| 2026-04-24 20:32 | 43.74861 | -74.36781 | 27938 ft | 342 kts | 318° |
| 2026-04-24 20:33 | 43.76449 | -74.39168 | 27943 ft | 336 kts | 312° |
| 2026-04-24 20:33 | 43.77788 | -74.41812 | 27946 ft | 342 kts | 306° |
| 2026-04-24 20:33 | 43.78883 | -74.44749 | 27942 ft | 347 kts | 300° |
| 2026-04-24 20:33 | 43.79698 | -74.47942 | 27946 ft | 354 kts | 292° |
| 2026-04-24 20:34 | 43.80188 | -74.51294 | 27943 ft | 359 kts | 286° |
| 2026-04-24 20:34 | 43.80334 | -74.54772 | 27944 ft | 366 kts | 278° |
| 2026-04-24 20:34 | 43.80258 | -74.58298 | 27947 ft | 366 kts | 278° |
| 2026-04-24 20:34 | 43.80187 | -74.61819 | 27938 ft | 366 kts | 278° |
| 2026-04-24 20:35 | 43.80106 | -74.65337 | 27936 ft | 366 kts | 278° |
| 2026-04-24 20:35 | 43.80019 | -74.68850 | 27941 ft | 365 kts | 278° |
| 2026-04-24 20:35 | 43.79933 | -74.72318 | 27932 ft | 365 kts | 278° |
| 2026-04-24 20:35 | 43.79848 | -74.75822 | 27948 ft | 364 kts | 278° |
| 2026-04-24 20:36 | 43.79764 | -74.79309 | 27932 ft | 366 kts | 278° |
| 2026-04-24 20:36 | 43.79676 | -74.82821 | 27935 ft | 365 kts | 278° |
| 2026-04-24 20:36 | 43.79585 | -74.86328 | 27942 ft | 364 kts | 278° |
| 2026-04-24 20:36 | 43.79495 | -74.89833 | 27935 ft | 365 kts | 278° |
| 2026-04-24 20:37 | 43.79405 | -74.93343 | 27936 ft | 364 kts | 278° |
| 2026-04-24 20:37 | 43.79313 | -74.96847 | 27944 ft | 365 kts | 278° |
| 2026-04-24 20:37 | 43.79220 | -75.00356 | 27933 ft | 365 kts | 278° |
| 2026-04-24 20:37 | 43.79125 | -75.03866 | 27935 ft | 365 kts | 278° |
| 2026-04-24 20:38 | 43.79030 | -75.07325 | 27907 ft | 364 kts | 278° |
| 2026-04-24 20:38 | 43.78934 | -75.10825 | 27933 ft | 365 kts | 278° |
| 2026-04-24 20:38 | 43.78838 | -75.14333 | 27932 ft | 365 kts | 278° |
| 2026-04-24 20:38 | 43.78739 | -75.17843 | 27932 ft | 365 kts | 278° |
| 2026-04-24 20:39 | 43.78639 | -75.21346 | 27932 ft | 365 kts | 278° |
| 2026-04-24 20:39 | 43.78538 | -75.24853 | 27932 ft | 364 kts | 278° |
| 2026-04-24 20:39 | 43.78437 | -75.28359 | 27931 ft | 364 kts | 278° |
| 2026-04-24 20:39 | 43.78334 | -75.31862 | 27931 ft | 364 kts | 278° |
| 2026-04-24 20:40 | 43.78231 | -75.35309 | 27934 ft | 364 kts | 278° |
| 2026-04-24 20:40 | 43.78127 | -75.38815 | 27935 ft | 365 kts | 278° |
| 2026-04-24 20:40 | 43.78021 | -75.42322 | 27933 ft | 365 kts | 278° |
| 2026-04-24 20:40 | 43.77914 | -75.45825 | 27933 ft | 367 kts | 278° |
| 2026-04-24 20:41 | 43.77806 | -75.49363 | 27933 ft | 367 kts | 278° |
| 2026-04-24 20:41 | 43.77694 | -75.52886 | 27932 ft | 367 kts | 278° |
| 2026-04-24 20:41 | 43.77582 | -75.56414 | 27934 ft | 367 kts | 278° |
| 2026-04-24 20:41 | 43.77462 | -75.59936 | 27931 ft | 369 kts | 276° |
| 2026-04-24 20:42 | 43.77080 | -75.63449 | 27938 ft | 379 kts | 268° |
| 2026-04-24 20:42 | 43.76298 | -75.66973 | 27952 ft | 389 kts | 260° |
| 2026-04-24 20:42 | 43.75105 | -75.70381 | 27948 ft | 399 kts | 251° |
| 2026-04-24 20:42 | 43.73499 | -75.73568 | 27952 ft | 409 kts | 242° |
| 2026-04-24 20:43 | 43.71497 | -75.76424 | 27935 ft | 420 kts | 232° |
| 2026-04-24 20:43 | 43.69124 | -75.78844 | 27909 ft | 429 kts | 221° |
| 2026-04-24 20:43 | 43.66435 | -75.80715 | 27959 ft | 439 kts | 210° |
| 2026-04-24 20:43 | 43.63512 | -75.81938 | 27958 ft | 450 kts | 199° |
| 2026-04-24 20:44 | 43.60372 | -75.82450 | 27956 ft | 460 kts | 187° |
| 2026-04-24 20:44 | 43.57156 | -75.82166 | 27957 ft | 468 kts | 175° |
| 2026-04-24 20:44 | 43.53992 | -75.81063 | 27956 ft | 472 kts | 162° |
| 2026-04-24 20:44 | 43.51007 | -75.79157 | 27949 ft | 473 kts | 149° |
| 2026-04-24 20:45 | 43.48331 | -75.76525 | 27950 ft | 475 kts | 136° |
| 2026-04-24 20:45 | 43.46061 | -75.73267 | 27942 ft | 470 kts | 124° |
| 2026-04-24 20:45 | 43.44284 | -75.69537 | 27949 ft | 462 kts | 111° |
| 2026-04-24 20:45 | 43.43062 | -75.65562 | 27942 ft | 453 kts | 99° |
| 2026-04-24 20:46 | 43.42372 | -75.61398 | 27935 ft | 441 kts | 88° |
| 2026-04-24 20:46 | 43.42216 | -75.57247 | 27949 ft | 429 kts | 78° |
| 2026-04-24 20:46 | 43.42311 | -75.53152 | 27935 ft | 429 kts | 77° |
| 2026-04-24 20:46 | 43.42449 | -75.49061 | 27935 ft | 428 kts | 77° |
| 2026-04-24 20:47 | 43.42595 | -75.44977 | 27939 ft | 428 kts | 77° |
| 2026-04-24 20:47 | 43.42718 | -75.40882 | 27950 ft | 430 kts | 77° |
| 2026-04-24 20:47 | 43.42834 | -75.36763 | 27939 ft | 430 kts | 77° |
| 2026-04-24 20:47 | 43.42954 | -75.32652 | 27939 ft | 430 kts | 77° |
| 2026-04-24 20:48 | 43.43078 | -75.28605 | 27937 ft | 430 kts | 77° |
| 2026-04-24 20:48 | 43.43200 | -75.24501 | 27937 ft | 430 kts | 77° |
| 2026-04-24 20:48 | 43.43317 | -75.20393 | 27934 ft | 430 kts | 77° |
| 2026-04-24 20:48 | 43.43432 | -75.16281 | 27934 ft | 430 kts | 77° |
| 2026-04-24 20:49 | 43.43548 | -75.12171 | 27938 ft | 430 kts | 77° |
| 2026-04-24 20:49 | 43.43659 | -75.08206 | 27940 ft | 431 kts | 77° |
| 2026-04-24 20:49 | 43.43773 | -75.04047 | 27941 ft | 433 kts | 77° |
| 2026-04-24 20:49 | 43.43884 | -74.99910 | 27932 ft | 431 kts | 77° |
| 2026-04-24 20:50 | 43.43992 | -74.95784 | 27935 ft | 431 kts | 77° |
| 2026-04-24 20:50 | 43.44102 | -74.91664 | 27930 ft | 431 kts | 77° |
| 2026-04-24 20:50 | 43.44208 | -74.87601 | 27931 ft | 431 kts | 77° |
| 2026-04-24 20:50 | 43.44313 | -74.83483 | 27931 ft | 431 kts | 77° |
| 2026-04-24 20:51 | 43.44417 | -74.79357 | 27934 ft | 432 kts | 77° |
| 2026-04-24 20:51 | 43.44520 | -74.75223 | 27934 ft | 432 kts | 77° |
| 2026-04-24 20:51 | 43.44620 | -74.71092 | 27934 ft | 432 kts | 77° |
| 2026-04-24 20:51 | 43.44720 | -74.66964 | 27930 ft | 431 kts | 77° |
| 2026-04-24 20:52 | 43.44818 | -74.62851 | 27925 ft | 430 kts | 77° |
| 2026-04-24 20:52 | 43.44916 | -74.58744 | 27924 ft | 430 kts | 77° |
| 2026-04-24 20:52 | 43.45010 | -74.54626 | 27921 ft | 431 kts | 77° |
| 2026-04-24 20:52 | 43.45239 | -74.50638 | 27930 ft | 420 kts | 69° |
| 2026-04-24 20:53 | 43.45921 | -74.46796 | 27930 ft | 410 kts | 59° |
| 2026-04-24 20:53 | 43.47009 | -74.43242 | 27937 ft | 397 kts | 49° |
| 2026-04-24 20:53 | 43.48447 | -74.40046 | 27936 ft | 389 kts | 41° |
| 2026-04-24 20:53 | 43.50181 | -74.37251 | 27935 ft | 379 kts | 32° |
| 2026-04-24 20:54 | 43.52149 | -74.34897 | 27956 ft | 374 kts | 25° |
| 2026-04-24 20:54 | 43.54331 | -74.32984 | 27935 ft | 370 kts | 19° |
| 2026-04-24 20:54 | 43.56668 | -74.31537 | 27936 ft | 365 kts | 11° |
| 2026-04-24 20:54 | 43.59045 | -74.30595 | 27933 ft | 359 kts | 5° |
| 2026-04-24 20:55 | 43.61506 | -74.30121 | 27935 ft | 354 kts | 358° |
| 2026-04-24 20:55 | 43.63954 | -74.30124 | 27930 ft | 351 kts | 351° |
| 2026-04-24 20:55 | 43.66363 | -74.30592 | 27933 ft | 348 kts | 344° |
| 2026-04-24 20:55 | 43.68683 | -74.31503 | 27938 ft | 346 kts | 338° |
| 2026-04-24 20:56 | 43.70883 | -74.32839 | 27943 ft | 345 kts | 331° |
| 2026-04-24 20:56 | 43.72930 | -74.34575 | 27935 ft | 346 kts | 324° |
| 2026-04-24 20:56 | 43.74790 | -74.36688 | 27935 ft | 343 kts | 318° |
| 2026-04-24 20:56 | 43.76390 | -74.39067 | 27952 ft | 336 kts | 312° |
| 2026-04-24 20:57 | 43.77754 | -74.41735 | 27949 ft | 343 kts | 306° |
| 2026-04-24 20:57 | 43.78846 | -74.44631 | 27941 ft | 346 kts | 300° |
| 2026-04-24 20:57 | 43.79665 | -74.47783 | 27953 ft | 353 kts | 293° |
| 2026-04-24 20:57 | 43.80173 | -74.51142 | 27946 ft | 359 kts | 286° |
| 2026-04-24 20:58 | 43.80335 | -74.54619 | 27945 ft | 366 kts | 279° |
| 2026-04-24 20:58 | 43.80261 | -74.58156 | 27948 ft | 367 kts | 278° |
| 2026-04-24 20:58 | 43.80189 | -74.61680 | 27943 ft | 366 kts | 278° |
| 2026-04-24 20:58 | 43.80109 | -74.65200 | 27947 ft | 366 kts | 278° |
| 2026-04-24 20:59 | 43.80022 | -74.68715 | 27947 ft | 366 kts | 278° |
| 2026-04-24 20:59 | 43.79937 | -74.72184 | 27945 ft | 365 kts | 278° |
| 2026-04-24 20:59 | 43.79852 | -74.75698 | 27941 ft | 366 kts | 278° |
| 2026-04-24 20:59 | 43.79768 | -74.79148 | 27934 ft | 365 kts | 278° |
| 2026-04-24 21:00 | 43.79679 | -74.82659 | 27938 ft | 365 kts | 278° |
| 2026-04-24 21:00 | 43.79589 | -74.86170 | 27948 ft | 365 kts | 278° |
| 2026-04-24 21:00 | 43.79500 | -74.89685 | 27944 ft | 365 kts | 278° |
| 2026-04-24 21:00 | 43.79409 | -74.93193 | 27942 ft | 364 kts | 278° |
| 2026-04-24 21:01 | 43.79317 | -74.96698 | 27950 ft | 365 kts | 278° |
| 2026-04-24 21:01 | 43.79225 | -75.00166 | 27945 ft | 365 kts | 278° |
| 2026-04-24 21:01 | 43.79130 | -75.03676 | 27945 ft | 365 kts | 278° |
| 2026-04-24 21:01 | 43.79035 | -75.07193 | 27907 ft | 366 kts | 278° |
| 2026-04-24 21:02 | 43.78937 | -75.10704 | 27932 ft | 365 kts | 278° |
| 2026-04-24 21:02 | 43.78841 | -75.14220 | 27932 ft | 367 kts | 278° |
| 2026-04-24 21:02 | 43.78742 | -75.17745 | 27934 ft | 366 kts | 278° |
| 2026-04-24 21:02 | 43.78641 | -75.21262 | 27933 ft | 366 kts | 278° |
| 2026-04-24 21:03 | 43.78540 | -75.24781 | 27933 ft | 366 kts | 278° |
| 2026-04-24 21:03 | 43.78440 | -75.28253 | 27933 ft | 366 kts | 278° |
| 2026-04-24 21:03 | 43.78337 | -75.31772 | 27933 ft | 367 kts | 278° |
| 2026-04-24 21:03 | 43.78232 | -75.35297 | 27934 ft | 367 kts | 278° |
| 2026-04-24 21:04 | 43.78126 | -75.38821 | 27936 ft | 366 kts | 278° |
| 2026-04-24 21:04 | 43.78019 | -75.42336 | 27935 ft | 365 kts | 278° |
| 2026-04-24 21:04 | 43.77913 | -75.45852 | 27931 ft | 367 kts | 278° |
| 2026-04-24 21:04 | 43.77805 | -75.49387 | 27935 ft | 368 kts | 278° |
| 2026-04-24 21:05 | 43.77693 | -75.52915 | 27933 ft | 367 kts | 278° |
| 2026-04-24 21:05 | 43.77583 | -75.56384 | 27933 ft | 366 kts | 278° |
| 2026-04-24 21:05 | 43.77463 | -75.59907 | 27931 ft | 368 kts | 276° |
| 2026-04-24 21:05 | 43.77079 | -75.63460 | 27939 ft | 379 kts | 268° |
| 2026-04-24 21:06 | 43.76295 | -75.66983 | 27949 ft | 389 kts | 260° |
| 2026-04-24 21:06 | 43.75099 | -75.70393 | 27943 ft | 399 kts | 251° |
| 2026-04-24 21:06 | 43.73493 | -75.73578 | 27947 ft | 409 kts | 242° |
| 2026-04-24 21:06 | 43.71489 | -75.76434 | 27931 ft | 420 kts | 232° |
| 2026-04-24 21:07 | 43.69112 | -75.78854 | 27908 ft | 430 kts | 221° |
| 2026-04-24 21:07 | 43.66456 | -75.80703 | 27954 ft | 440 kts | 211° |
| 2026-04-24 21:07 | 43.63492 | -75.81944 | 27953 ft | 451 kts | 199° |
| 2026-04-24 21:07 | 43.60344 | -75.82450 | 27957 ft | 460 kts | 187° |
| 2026-04-24 21:08 | 43.57123 | -75.82160 | 27948 ft | 469 kts | 174° |
| 2026-04-24 21:08 | 43.53947 | -75.81040 | 27953 ft | 474 kts | 162° |
| 2026-04-24 21:08 | 43.50963 | -75.79120 | 27941 ft | 474 kts | 149° |
| 2026-04-24 21:08 | 43.48287 | -75.76472 | 27948 ft | 476 kts | 136° |
| 2026-04-24 21:09 | 43.46018 | -75.73191 | 27945 ft | 471 kts | 123° |
| 2026-04-24 21:09 | 43.44274 | -75.69511 | 27937 ft | 463 kts | 111° |
| 2026-04-24 21:09 | 43.43040 | -75.65466 | 27945 ft | 453 kts | 99° |
| 2026-04-24 21:09 | 43.42362 | -75.61296 | 27935 ft | 441 kts | 88° |
| 2026-04-24 21:10 | 43.42218 | -75.57147 | 27948 ft | 430 kts | 78° |
| 2026-04-24 21:10 | 43.42315 | -75.53042 | 27931 ft | 429 kts | 77° |
| 2026-04-24 21:10 | 43.42453 | -75.48949 | 27935 ft | 428 kts | 76° |
| 2026-04-24 21:10 | 43.42598 | -75.44861 | 27936 ft | 429 kts | 77° |
| 2026-04-24 21:11 | 43.42722 | -75.40752 | 27945 ft | 431 kts | 77° |
| 2026-04-24 21:11 | 43.42837 | -75.36630 | 27937 ft | 430 kts | 77° |
| 2026-04-24 21:11 | 43.42958 | -75.32516 | 27937 ft | 430 kts | 77° |
| 2026-04-24 21:11 | 43.43082 | -75.28465 | 27932 ft | 430 kts | 77° |
| 2026-04-24 21:12 | 43.43205 | -75.24353 | 27935 ft | 430 kts | 77° |
| 2026-04-24 21:12 | 43.43284 | -75.21572 | 27934 ft | 431 kts | 77° |
| 2026-04-24 21:12 | 43.43437 | -75.16116 | 27935 ft | 431 kts | 77° |
| 2026-04-24 21:12 | 43.43553 | -75.11998 | 27936 ft | 432 kts | 77° |
| 2026-04-24 21:13 | 43.43664 | -75.08033 | 27937 ft | 431 kts | 77° |
| 2026-04-24 21:13 | 43.43777 | -75.03870 | 27934 ft | 433 kts | 77° |
| 2026-04-24 21:13 | 43.43888 | -74.99743 | 27929 ft | 431 kts | 77° |
| 2026-04-24 21:13 | 43.43996 | -74.95675 | 27929 ft | 431 kts | 77° |
| 2026-04-24 21:14 | 43.44106 | -74.91558 | 27927 ft | 432 kts | 77° |
| 2026-04-24 21:14 | 43.44213 | -74.87423 | 27927 ft | 431 kts | 77° |
| 2026-04-24 21:14 | 43.44317 | -74.83309 | 27927 ft | 431 kts | 77° |
| 2026-04-24 21:14 | 43.44421 | -74.79178 | 27936 ft | 432 kts | 77° |
| 2026-04-24 21:15 | 43.44525 | -74.75051 | 27927 ft | 432 kts | 77° |
| 2026-04-24 21:15 | 43.44624 | -74.70917 | 27928 ft | 432 kts | 77° |
| 2026-04-24 21:15 | 43.44724 | -74.66789 | 27926 ft | 431 kts | 77° |
| 2026-04-24 21:15 | 43.44823 | -74.62668 | 27924 ft | 431 kts | 77° |
| 2026-04-24 21:16 | 43.44920 | -74.58606 | 27921 ft | 432 kts | 77° |
| 2026-04-24 21:16 | 43.45013 | -74.54478 | 27919 ft | 432 kts | 77° |
| 2026-04-24 21:16 | 43.45258 | -74.50478 | 27929 ft | 420 kts | 68° |
| 2026-04-24 21:16 | 43.45965 | -74.46613 | 27924 ft | 408 kts | 58° |
| 2026-04-24 21:17 | 43.47069 | -74.43083 | 27934 ft | 396 kts | 49° |
| 2026-04-24 21:17 | 43.48522 | -74.39908 | 27931 ft | 389 kts | 40° |
| 2026-04-24 21:17 | 43.50264 | -74.37138 | 27933 ft | 378 kts | 32° |
| 2026-04-24 21:17 | 43.51553 | -74.35541 | 27984 ft | 373 kts | 28° |
| 2026-04-24 21:18 | 43.54425 | -74.32915 | 27930 ft | 370 kts | 19° |
| 2026-04-24 21:18 | 43.56736 | -74.31504 | 27934 ft | 365 kts | 11° |
| 2026-04-24 21:18 | 43.59152 | -74.30565 | 27931 ft | 359 kts | 4° |
| 2026-04-24 21:18 | 43.61614 | -74.30111 | 27933 ft | 354 kts | 357° |
| 2026-04-24 21:19 | 43.64063 | -74.30135 | 27931 ft | 351 kts | 350° |
| 2026-04-24 21:19 | 43.66467 | -74.30623 | 27932 ft | 348 kts | 344° |
| 2026-04-24 21:19 | 43.68783 | -74.31554 | 27941 ft | 347 kts | 337° |
| 2026-04-24 21:19 | 43.70979 | -74.32909 | 27945 ft | 346 kts | 331° |
| 2026-04-24 21:20 | 43.74877 | -74.36805 | 27942 ft | 342 kts | 318° |
| 2026-04-24 21:20 | 43.76446 | -74.39166 | 27949 ft | 337 kts | 312° |
| 2026-04-24 21:20 | 43.77802 | -74.41849 | 27942 ft | 343 kts | 306° |
| 2026-04-24 21:21 | 43.78898 | -74.44799 | 27943 ft | 347 kts | 299° |
| 2026-04-24 21:21 | 43.79704 | -74.47974 | 27943 ft | 354 kts | 293° |
| 2026-04-24 21:21 | 43.80192 | -74.51345 | 27948 ft | 360 kts | 286° |
| 2026-04-24 21:21 | 43.80333 | -74.54835 | 27948 ft | 367 kts | 278° |
| 2026-04-24 21:22 | 43.80256 | -74.58367 | 27947 ft | 367 kts | 278° |
| 2026-04-24 21:22 | 43.80185 | -74.61900 | 27936 ft | 367 kts | 278° |
| 2026-04-24 21:22 | 43.80106 | -74.65383 | 27940 ft | 367 kts | 278° |
| 2026-04-24 21:22 | 43.80046 | -74.67772 | 27945 ft | 367 kts | 278° |
| 2026-04-24 21:23 | 43.79930 | -74.72441 | 27934 ft | 366 kts | 278° |
| 2026-04-24 21:23 | 43.79846 | -74.75972 | 27945 ft | 367 kts | 278° |
| 2026-04-24 21:23 | 43.79764 | -74.79300 | 27932 ft | 366 kts | 278° |
| 2026-04-24 21:23 | 43.79675 | -74.82823 | 27932 ft | 366 kts | 278° |
| 2026-04-24 21:24 | 43.79585 | -74.86340 | 27933 ft | 366 kts | 278° |
| 2026-04-24 21:24 | 43.79495 | -74.89858 | 27929 ft | 366 kts | 278° |
| 2026-04-24 21:24 | 43.79405 | -74.93373 | 27928 ft | 366 kts | 278° |
| 2026-04-24 21:24 | 43.79313 | -74.96847 | 27943 ft | 364 kts | 278° |
| 2026-04-24 21:25 | 43.79214 | -75.00284 | 27906 ft | 351 kts | 278° |
| 2026-04-24 21:25 | 43.79122 | -75.03596 | 27879 ft | 339 kts | 279° |
| 2026-04-24 21:25 | 43.79038 | -75.06801 | 27824 ft | 328 kts | 279° |
| 2026-04-24 21:25 | 43.78956 | -75.09929 | 27591 ft | 324 kts | 279° |
| 2026-04-24 21:26 | 43.78875 | -75.13058 | 27185 ft | 326 kts | 279° |
| 2026-04-24 21:26 | 43.78788 | -75.16195 | 26793 ft | 327 kts | 279° |
| 2026-04-24 21:26 | 43.78697 | -75.19346 | 26400 ft | 328 kts | 279° |
| 2026-04-24 21:26 | 43.78606 | -75.22510 | 25992 ft | 330 kts | 279° |
| 2026-04-24 21:27 | 43.78516 | -75.25646 | 25585 ft | 331 kts | 279° |
| 2026-04-24 21:27 | 43.78424 | -75.28834 | 25173 ft | 332 kts | 279° |
| 2026-04-24 21:27 | 43.78330 | -75.32034 | 24757 ft | 334 kts | 278° |
| 2026-04-24 21:27 | 43.78267 | -75.34162 | 24472 ft | 335 kts | 278° |
| 2026-04-24 21:28 | 43.78138 | -75.38480 | 23891 ft | 337 kts | 278° |
| 2026-04-24 21:28 | 43.78040 | -75.41721 | 23472 ft | 338 kts | 278° |
| 2026-04-24 21:28 | 43.77942 | -75.44986 | 22818 ft | 342 kts | 277° |
| 2026-04-24 21:28 | 43.77841 | -75.48294 | 22250 ft | 345 kts | 277° |
| 2026-04-24 21:29 | 43.77735 | -75.51616 | 21753 ft | 346 kts | 277° |
| 2026-04-24 21:29 | 43.77631 | -75.54901 | 21238 ft | 348 kts | 277° |
| 2026-04-24 21:29 | 43.77526 | -75.58251 | 20711 ft | 349 kts | 276° |
| 2026-04-24 21:29 | 43.77329 | -75.61618 | 20158 ft | 356 kts | 270° |
| 2026-04-24 21:30 | 43.76781 | -75.65008 | 19940 ft | 366 kts | 263° |
| 2026-04-24 21:30 | 43.75862 | -75.68382 | 19945 ft | 383 kts | 255° |
| 2026-04-24 21:30 | 43.74542 | -75.71626 | 19946 ft | 392 kts | 246° |
| 2026-04-24 21:30 | 43.72840 | -75.74615 | 19943 ft | 400 kts | 237° |
| 2026-04-24 21:31 | 43.70781 | -75.77245 | 19935 ft | 406 kts | 227° |
| 2026-04-24 21:31 | 43.68444 | -75.79391 | 19936 ft | 412 kts | 217° |
| 2026-04-24 21:31 | 43.65806 | -75.81042 | 19955 ft | 421 kts | 206° |
| 2026-04-24 21:31 | 43.62954 | -75.82085 | 19954 ft | 429 kts | 195° |
| 2026-04-24 21:32 | 43.59961 | -75.82457 | 19951 ft | 435 kts | 184° |
| 2026-04-24 21:32 | 43.56934 | -75.82114 | 19947 ft | 440 kts | 173° |
| 2026-04-24 21:32 | 43.53961 | -75.81044 | 19948 ft | 443 kts | 161° |
| 2026-04-24 21:32 | 43.51167 | -75.79281 | 19936 ft | 441 kts | 150° |
| 2026-04-24 21:33 | 43.48638 | -75.76881 | 19936 ft | 446 kts | 139° |
| 2026-04-24 21:33 | 43.47132 | -75.74955 | 19939 ft | 445 kts | 131° |
| 2026-04-24 21:33 | 43.44677 | -75.70500 | 19943 ft | 439 kts | 116° |
| 2026-04-24 21:33 | 43.43365 | -75.66751 | 19933 ft | 432 kts | 105° |
| 2026-04-24 21:34 | 43.42545 | -75.62811 | 19947 ft | 425 kts | 94° |
| 2026-04-24 21:34 | 43.42216 | -75.58823 | 19939 ft | 416 kts | 83° |
| 2026-04-24 21:34 | 43.42268 | -75.54877 | 19929 ft | 411 kts | 80° |
| 2026-04-24 21:34 | 43.42383 | -75.50954 | 19934 ft | 410 kts | 79° |
| 2026-04-24 21:35 | 43.42476 | -75.48361 | 19935 ft | 409 kts | 79° |
| 2026-04-24 21:35 | 43.42610 | -75.44453 | 19936 ft | 410 kts | 79° |
| 2026-04-24 21:35 | 43.42763 | -75.39238 | 19932 ft | 414 kts | 79° |
| 2026-04-24 21:35 | 43.42877 | -75.35283 | 19934 ft | 414 kts | 79° |
| 2026-04-24 21:36 | 43.42996 | -75.31327 | 19930 ft | 414 kts | 79° |
| 2026-04-24 21:36 | 43.43115 | -75.27369 | 19932 ft | 413 kts | 79° |
| 2026-04-24 21:36 | 43.43230 | -75.23419 | 19932 ft | 414 kts | 79° |
| 2026-04-24 21:36 | 43.43305 | -75.20797 | 19932 ft | 414 kts | 79° |
| 2026-04-24 21:37 | 43.43417 | -75.16837 | 19932 ft | 415 kts | 79° |
| 2026-04-24 21:37 | 43.43529 | -75.12879 | 19933 ft | 415 kts | 79° |
| 2026-04-24 21:37 | 43.43637 | -75.08966 | 19933 ft | 414 kts | 79° |
| 2026-04-24 21:37 | 43.43780 | -75.03725 | 19930 ft | 415 kts | 79° |
| 2026-04-24 21:38 | 43.43887 | -74.99771 | 19925 ft | 413 kts | 79° |
| 2026-04-24 21:38 | 43.43990 | -74.95924 | 19925 ft | 413 kts | 79° |
| 2026-04-24 21:38 | 43.44060 | -74.93306 | 19924 ft | 413 kts | 79° |
| 2026-04-24 21:38 | 43.44162 | -74.89372 | 19919 ft | 413 kts | 79° |
| 2026-04-24 21:39 | 43.44264 | -74.85410 | 19921 ft | 414 kts | 79° |
| 2026-04-24 21:39 | 43.44365 | -74.81460 | 19930 ft | 414 kts | 79° |
| 2026-04-24 21:39 | 43.44464 | -74.77498 | 19926 ft | 414 kts | 79° |
| 2026-04-24 21:39 | 43.44592 | -74.72270 | 19927 ft | 413 kts | 79° |
| 2026-04-24 21:40 | 43.44691 | -74.68308 | 19929 ft | 422 kts | 79° |
| 2026-04-24 21:40 | 43.44763 | -74.65548 | 19929 ft | 428 kts | 79° |
| 2026-04-24 21:40 | 43.44856 | -74.61498 | 19928 ft | 432 kts | 79° |
| 2026-04-24 21:40 | 43.44946 | -74.57365 | 19929 ft | 433 kts | 79° |
| 2026-04-24 21:41 | 43.45043 | -74.53219 | 19927 ft | 432 kts | 78° |
| 2026-04-24 21:41 | 43.45441 | -74.49185 | 19930 ft | 421 kts | 68° |
| 2026-04-24 21:41 | 43.46293 | -74.45395 | 19930 ft | 410 kts | 58° |
| 2026-04-24 21:41 | 43.47537 | -74.41937 | 19926 ft | 398 kts | 49° |
| 2026-04-24 21:42 | 43.49117 | -74.38864 | 19931 ft | 388 kts | 40° |
| 2026-04-24 21:42 | 43.50962 | -74.36233 | 19932 ft | 377 kts | 32° |
| 2026-04-24 21:42 | 43.53036 | -74.34045 | 19929 ft | 375 kts | 25° |
| 2026-04-24 21:42 | 43.55304 | -74.32313 | 19928 ft | 373 kts | 19° |
| 2026-04-24 21:43 | 43.57671 | -74.31079 | 19932 ft | 367 kts | 11° |
| 2026-04-24 21:43 | 43.60150 | -74.30321 | 19920 ft | 362 kts | 4° |
| 2026-04-24 21:43 | 43.62644 | -74.30063 | 19932 ft | 358 kts | 356° |
| 2026-04-24 21:43 | 43.65119 | -74.30291 | 19933 ft | 356 kts | 349° |
| 2026-04-24 21:44 | 43.67530 | -74.30990 | 19932 ft | 353 kts | 342° |
| 2026-04-24 21:44 | 43.69836 | -74.32140 | 19938 ft | 352 kts | 335° |
| 2026-04-24 21:44 | 43.71993 | -74.33721 | 19914 ft | 350 kts | 327° |
| 2026-04-24 21:44 | 43.73953 | -74.35676 | 19937 ft | 354 kts | 321° |
| 2026-04-24 21:45 | 43.75698 | -74.37970 | 19929 ft | 338 kts | 315° |
| 2026-04-24 21:45 | 43.77177 | -74.40521 | 19936 ft | 343 kts | 308° |
| 2026-04-24 21:45 | 43.78407 | -74.43358 | 19941 ft | 346 kts | 301° |
| 2026-04-24 21:45 | 43.79358 | -74.46438 | 19938 ft | 350 kts | 294° |
| 2026-04-24 21:46 | 43.80001 | -74.49714 | 19943 ft | 357 kts | 288° |
| 2026-04-24 21:46 | 43.80311 | -74.53148 | 19945 ft | 363 kts | 280° |
| 2026-04-24 21:46 | 43.80295 | -74.56659 | 19949 ft | 367 kts | 276° |
| 2026-04-24 21:46 | 43.80222 | -74.60186 | 19949 ft | 367 kts | 276° |
| 2026-04-24 21:47 | 43.80147 | -74.63666 | 19940 ft | 366 kts | 276° |
| 2026-04-24 21:47 | 43.80060 | -74.67198 | 19939 ft | 367 kts | 276° |
| 2026-04-24 21:47 | 43.79973 | -74.70724 | 19941 ft | 367 kts | 276° |
| 2026-04-24 21:47 | 43.79887 | -74.74260 | 19940 ft | 367 kts | 276° |
| 2026-04-24 21:48 | 43.79802 | -74.77790 | 19932 ft | 367 kts | 276° |
| 2026-04-24 21:48 | 43.79714 | -74.81317 | 19935 ft | 367 kts | 276° |
| 2026-04-24 21:48 | 43.79624 | -74.84841 | 19935 ft | 366 kts | 276° |
| 2026-04-24 21:48 | 43.79534 | -74.88374 | 19933 ft | 368 kts | 276° |
| 2026-04-24 21:49 | 43.79443 | -74.91909 | 19933 ft | 367 kts | 276° |
| 2026-04-24 21:49 | 43.79352 | -74.95388 | 19937 ft | 367 kts | 276° |
| 2026-04-24 21:49 | 43.79258 | -74.98920 | 19933 ft | 367 kts | 276° |
| 2026-04-24 21:49 | 43.79163 | -75.02452 | 19934 ft | 367 kts | 276° |
| 2026-04-24 21:50 | 43.79068 | -75.05974 | 19927 ft | 367 kts | 276° |
| 2026-04-24 21:50 | 43.78970 | -75.09486 | 19923 ft | 363 kts | 276° |
| 2026-04-24 21:50 | 43.78874 | -75.12985 | 19922 ft | 365 kts | 276° |
| 2026-04-24 21:50 | 43.78778 | -75.16493 | 19924 ft | 365 kts | 276° |
| 2026-04-24 21:51 | 43.78678 | -75.20002 | 19925 ft | 365 kts | 276° |
| 2026-04-24 21:51 | 43.78577 | -75.23510 | 19929 ft | 365 kts | 276° |
| 2026-04-24 21:51 | 43.78477 | -75.26970 | 19930 ft | 365 kts | 276° |
| 2026-04-24 21:51 | 43.78375 | -75.30477 | 19930 ft | 365 kts | 276° |
| 2026-04-24 21:52 | 43.78272 | -75.33973 | 19930 ft | 365 kts | 276° |
| 2026-04-24 21:52 | 43.78167 | -75.37482 | 19933 ft | 364 kts | 276° |
| 2026-04-24 21:52 | 43.78061 | -75.40988 | 19931 ft | 364 kts | 276° |
| 2026-04-24 21:52 | 43.77955 | -75.44487 | 19926 ft | 365 kts | 276° |
| 2026-04-24 21:53 | 43.77847 | -75.48012 | 19932 ft | 367 kts | 276° |
| 2026-04-24 21:53 | 43.77737 | -75.51535 | 19929 ft | 366 kts | 276° |
| 2026-04-24 21:53 | 43.77627 | -75.55006 | 19927 ft | 366 kts | 276° |
| 2026-04-24 21:53 | 43.77516 | -75.58516 | 19925 ft | 365 kts | 276° |
| 2026-04-24 21:54 | 43.77280 | -75.62035 | 19925 ft | 372 kts | 269° |
| 2026-04-24 21:54 | 43.76663 | -75.65558 | 19933 ft | 382 kts | 261° |
| 2026-04-24 21:54 | 43.75644 | -75.69004 | 19941 ft | 392 kts | 253° |
| 2026-04-24 21:54 | 43.74218 | -75.72273 | 19941 ft | 403 kts | 244° |
| 2026-04-24 21:55 | 43.72389 | -75.75268 | 19941 ft | 414 kts | 234° |
| 2026-04-24 21:55 | 43.70174 | -75.77878 | 19939 ft | 424 kts | 224° |
| 2026-04-24 21:55 | 43.67617 | -75.79991 | 19936 ft | 433 kts | 213° |
| 2026-04-24 21:55 | 43.64817 | -75.81486 | 19949 ft | 443 kts | 202° |
| 2026-04-24 21:56 | 43.61770 | -75.82318 | 19951 ft | 451 kts | 191° |
| 2026-04-24 21:56 | 43.58613 | -75.82394 | 19948 ft | 457 kts | 179° |
| 2026-04-24 21:56 | 43.55459 | -75.81679 | 19946 ft | 461 kts | 167° |
| 2026-04-24 21:56 | 43.52440 | -75.80184 | 19932 ft | 462 kts | 155° |
| 2026-04-24 21:57 | 43.49733 | -75.78029 | 19967 ft | 461 kts | 144° |
| 2026-04-24 21:57 | 43.47272 | -75.75151 | 19930 ft | 465 kts | 132° |
| 2026-04-24 21:57 | 43.45243 | -75.71730 | 19934 ft | 460 kts | 120° |
| 2026-04-24 21:57 | 43.43727 | -75.67959 | 19933 ft | 454 kts | 108° |
| 2026-04-24 21:58 | 43.42719 | -75.63889 | 19933 ft | 446 kts | 97° |
| 2026-04-24 21:58 | 43.42249 | -75.59721 | 19939 ft | 436 kts | 86° |
| 2026-04-24 21:58 | 43.42251 | -75.55582 | 19929 ft | 432 kts | 81° |
| 2026-04-24 21:58 | 43.42363 | -75.51468 | 19931 ft | 430 kts | 79° |
| 2026-04-24 21:59 | 43.42510 | -75.47364 | 19938 ft | 430 kts | 79° |
| 2026-04-24 21:59 | 43.42649 | -75.43249 | 19934 ft | 431 kts | 79° |
| 2026-04-24 21:59 | 43.42769 | -75.39121 | 19930 ft | 434 kts | 79° |
| 2026-04-24 21:59 | 43.42884 | -75.35033 | 19932 ft | 433 kts | 79° |
| 2026-04-24 22:00 | 43.43008 | -75.30894 | 19932 ft | 433 kts | 79° |
| 2026-04-24 22:00 | 43.43133 | -75.26754 | 19932 ft | 433 kts | 79° |
| 2026-04-24 22:00 | 43.43254 | -75.22614 | 19931 ft | 433 kts | 79° |
| 2026-04-24 22:00 | 43.43370 | -75.18483 | 19931 ft | 432 kts | 79° |
| 2026-04-24 22:01 | 43.43486 | -75.14355 | 19931 ft | 432 kts | 79° |
| 2026-04-24 22:01 | 43.43603 | -75.10227 | 19928 ft | 432 kts | 79° |
| 2026-04-24 22:01 | 43.43718 | -75.06087 | 19967 ft | 433 kts | 79° |
| 2026-04-24 22:01 | 43.43829 | -75.01950 | 19926 ft | 432 kts | 79° |
| 2026-04-24 22:02 | 43.43938 | -74.97867 | 19923 ft | 433 kts | 79° |
| 2026-04-24 22:02 | 43.44049 | -74.93726 | 19928 ft | 433 kts | 79° |
| 2026-04-24 22:02 | 43.44156 | -74.89596 | 19928 ft | 433 kts | 79° |
| 2026-04-24 22:02 | 43.44263 | -74.85454 | 19927 ft | 433 kts | 79° |
| 2026-04-24 22:03 | 43.44368 | -74.81312 | 19931 ft | 433 kts | 79° |
| 2026-04-24 22:03 | 43.44472 | -74.77174 | 19921 ft | 433 kts | 79° |
| 2026-04-24 22:03 | 43.44573 | -74.73040 | 19920 ft | 432 kts | 79° |
| 2026-04-24 22:03 | 43.44674 | -74.68911 | 19919 ft | 432 kts | 79° |
| 2026-04-24 22:04 | 43.44772 | -74.64836 | 19922 ft | 432 kts | 79° |
| 2026-04-24 22:04 | 43.44870 | -74.60698 | 19923 ft | 433 kts | 79° |
| 2026-04-24 22:04 | 43.44966 | -74.56553 | 19918 ft | 433 kts | 79° |
| 2026-04-24 22:04 | 43.45083 | -74.52420 | 19921 ft | 429 kts | 76° |
| 2026-04-24 22:05 | 43.45574 | -74.48429 | 19927 ft | 418 kts | 66° |
| 2026-04-24 22:05 | 43.46505 | -74.44701 | 19919 ft | 407 kts | 56° |
| 2026-04-24 22:05 | 43.47815 | -74.41319 | 19928 ft | 396 kts | 47° |
| 2026-04-24 22:05 | 43.49450 | -74.38329 | 19931 ft | 386 kts | 39° |
| 2026-04-24 22:06 | 43.51341 | -74.35782 | 19950 ft | 376 kts | 30° |
| 2026-04-24 22:06 | 43.53427 | -74.33704 | 19941 ft | 373 kts | 25° |
| 2026-04-24 22:06 | 43.55728 | -74.32053 | 19931 ft | 372 kts | 18° |
| 2026-04-24 22:06 | 43.58144 | -74.30894 | 19928 ft | 366 kts | 10° |
| 2026-04-24 22:07 | 43.60633 | -74.30234 | 19934 ft | 362 kts | 2° |
| 2026-04-24 22:07 | 43.63135 | -74.30070 | 19936 ft | 359 kts | 355° |
| 2026-04-24 22:07 | 43.65609 | -74.30394 | 19932 ft | 356 kts | 348° |
| 2026-04-24 22:07 | 43.68007 | -74.31187 | 19932 ft | 354 kts | 341° |
| 2026-04-24 22:08 | 43.70297 | -74.32433 | 19942 ft | 354 kts | 334° |
| 2026-04-24 22:08 | 43.72410 | -74.34082 | 19943 ft | 354 kts | 327° |
| 2026-04-24 22:08 | 43.74365 | -74.36148 | 19914 ft | 353 kts | 320° |
| 2026-04-24 22:08 | 43.76048 | -74.38501 | 19927 ft | 339 kts | 313° |
| 2026-04-24 22:09 | 43.77480 | -74.41133 | 19938 ft | 345 kts | 307° |
| 2026-04-24 22:09 | 43.78653 | -74.44042 | 19938 ft | 348 kts | 300° |
| 2026-04-24 22:09 | 43.79538 | -74.47187 | 19949 ft | 354 kts | 293° |
| 2026-04-24 22:09 | 43.80108 | -74.50525 | 19949 ft | 360 kts | 286° |
| 2026-04-24 22:10 | 43.80333 | -74.53998 | 19954 ft | 366 kts | 278° |
| 2026-04-24 22:10 | 43.80276 | -74.57530 | 19950 ft | 368 kts | 276° |
| 2026-04-24 22:10 | 43.80205 | -74.61023 | 19950 ft | 368 kts | 276° |
| 2026-04-24 22:10 | 43.80125 | -74.64566 | 19944 ft | 369 kts | 276° |
| 2026-04-24 22:11 | 43.80037 | -74.68116 | 19944 ft | 369 kts | 276° |
| 2026-04-24 22:11 | 43.79950 | -74.71666 | 19945 ft | 369 kts | 276° |
| 2026-04-24 22:11 | 43.79865 | -74.75223 | 19945 ft | 370 kts | 276° |
| 2026-04-24 22:11 | 43.79777 | -74.78775 | 19940 ft | 369 kts | 276° |
| 2026-04-24 22:12 | 43.79688 | -74.82322 | 19943 ft | 369 kts | 276° |
| 2026-04-24 22:12 | 43.79598 | -74.85867 | 19946 ft | 368 kts | 276° |
| 2026-04-24 22:12 | 43.79509 | -74.89364 | 19944 ft | 368 kts | 276° |
| 2026-04-24 22:12 | 43.79417 | -74.92906 | 19942 ft | 369 kts | 275° |
| 2026-04-24 22:13 | 43.79324 | -74.96455 | 19943 ft | 370 kts | 276° |
| 2026-04-24 22:13 | 43.79229 | -75.00007 | 19940 ft | 369 kts | 275° |
| 2026-04-24 22:13 | 43.79133 | -75.03563 | 19940 ft | 369 kts | 275° |
| 2026-04-24 22:13 | 43.79036 | -75.07104 | 19911 ft | 368 kts | 276° |
| 2026-04-24 22:14 | 43.78937 | -75.10616 | 19929 ft | 365 kts | 276° |
| 2026-04-24 22:14 | 43.78843 | -75.14124 | 19927 ft | 365 kts | 276° |
| 2026-04-24 22:14 | 43.78746 | -75.17629 | 19928 ft | 365 kts | 276° |
| 2026-04-24 22:14 | 43.78646 | -75.21143 | 19929 ft | 366 kts | 276° |
| 2026-04-24 22:15 | 43.78545 | -75.24617 | 19932 ft | 366 kts | 276° |
| 2026-04-24 22:15 | 43.78443 | -75.28132 | 19933 ft | 366 kts | 276° |
| 2026-04-24 22:15 | 43.78340 | -75.31648 | 19933 ft | 366 kts | 276° |
| 2026-04-24 22:15 | 43.78236 | -75.35161 | 19932 ft | 365 kts | 276° |
| 2026-04-24 22:16 | 43.78131 | -75.38666 | 19937 ft | 365 kts | 276° |
| 2026-04-24 22:16 | 43.78025 | -75.42171 | 19936 ft | 365 kts | 276° |
| 2026-04-24 22:16 | 43.77918 | -75.45684 | 19937 ft | 367 kts | 276° |
| 2026-04-24 22:16 | 43.77810 | -75.49213 | 19938 ft | 367 kts | 276° |
| 2026-04-24 22:17 | 43.77699 | -75.52733 | 19936 ft | 366 kts | 276° |
| 2026-04-24 22:17 | 43.77589 | -75.56202 | 19936 ft | 365 kts | 276° |
| 2026-04-24 22:17 | 43.77473 | -75.59713 | 19934 ft | 367 kts | 275° |
| 2026-04-24 22:17 | 43.77113 | -75.63245 | 19939 ft | 376 kts | 266° |
| 2026-04-24 22:18 | 43.76359 | -75.66756 | 19942 ft | 386 kts | 258° |
| 2026-04-24 22:18 | 43.75199 | -75.70154 | 19949 ft | 397 kts | 250° |
| 2026-04-24 22:18 | 43.73628 | -75.73350 | 19954 ft | 408 kts | 240° |
| 2026-04-24 22:18 | 43.71654 | -75.76234 | 19940 ft | 419 kts | 231° |
| 2026-04-24 22:19 | 43.69313 | -75.78681 | 19918 ft | 428 kts | 220° |
| 2026-04-24 22:19 | 43.66685 | -75.80574 | 19950 ft | 437 kts | 209° |
| 2026-04-24 22:19 | 43.63757 | -75.81863 | 19960 ft | 446 kts | 198° |
| 2026-04-24 22:19 | 43.60656 | -75.82434 | 19956 ft | 454 kts | 187° |
| 2026-04-24 22:20 | 43.57484 | -75.82231 | 19956 ft | 460 kts | 175° |
| 2026-04-24 22:20 | 43.54355 | -75.81230 | 19954 ft | 463 kts | 163° |
| 2026-04-24 22:20 | 43.51406 | -75.79464 | 19945 ft | 461 kts | 151° |
| 2026-04-24 22:20 | 43.48742 | -75.76997 | 19941 ft | 467 kts | 139° |
| 2026-04-24 22:21 | 43.46471 | -75.73946 | 19942 ft | 462 kts | 128° |
| 2026-04-24 22:21 | 43.44590 | -75.70290 | 19942 ft | 458 kts | 115° |
| 2026-04-24 22:21 | 43.43275 | -75.66411 | 19940 ft | 451 kts | 104° |
| 2026-04-24 22:21 | 43.42475 | -75.62290 | 19943 ft | 442 kts | 93° |
| 2026-04-24 22:22 | 43.42209 | -75.58128 | 19943 ft | 433 kts | 82° |
| 2026-04-24 22:22 | 43.42287 | -75.54002 | 19939 ft | 431 kts | 80° |
| 2026-04-24 22:22 | 43.42417 | -75.49894 | 19944 ft | 430 kts | 79° |
| 2026-04-24 22:22 | 43.42567 | -75.45787 | 19946 ft | 430 kts | 79° |
| 2026-04-24 22:23 | 43.42696 | -75.41676 | 19967 ft | 431 kts | 79° |
| 2026-04-24 22:23 | 43.42813 | -75.37533 | 19942 ft | 434 kts | 79° |
| 2026-04-24 22:23 | 43.42931 | -75.33444 | 19942 ft | 434 kts | 79° |
| 2026-04-24 22:23 | 43.43057 | -75.29298 | 19940 ft | 433 kts | 79° |
| 2026-04-24 22:24 | 43.43181 | -75.25160 | 19939 ft | 433 kts | 79° |
| 2026-04-24 22:24 | 43.43281 | -75.21015 | 19942 ft | 436 kts | 83° |
| 2026-04-24 22:24 | 43.43159 | -75.16826 | 19937 ft | 438 kts | 84° |
| 2026-04-24 22:24 | 43.43130 | -75.12645 | 19941 ft | 436 kts | 82° |
| 2026-04-24 22:25 | 43.43108 | -75.08470 | 19944 ft | 439 kts | 84° |
| 2026-04-24 22:25 | 43.42899 | -75.04265 | 19942 ft | 444 kts | 87° |
| 2026-04-24 22:25 | 43.42621 | -75.00027 | 19933 ft | 444 kts | 86° |
| 2026-04-24 22:25 | 43.42427 | -74.95866 | 19951 ft | 441 kts | 85° |
| 2026-04-24 22:26 | 43.42278 | -74.91670 | 19935 ft | 438 kts | 85° |
| 2026-04-24 22:26 | 43.42096 | -74.87486 | 19936 ft | 441 kts | 86° |
| 2026-04-24 22:26 | 43.41880 | -74.83279 | 19937 ft | 440 kts | 86° |
| 2026-04-24 22:26 | 43.41674 | -74.79085 | 19935 ft | 439 kts | 85° |
| 2026-04-24 22:27 | 43.41484 | -74.74900 | 19932 ft | 438 kts | 85° |
| 2026-04-24 22:27 | 43.41291 | -74.70713 | 19929 ft | 438 kts | 85° |
| 2026-04-24 22:27 | 43.41087 | -74.66533 | 19926 ft | 439 kts | 86° |
| 2026-04-24 22:27 | 43.40883 | -74.62406 | 19927 ft | 439 kts | 86° |
| 2026-04-24 22:28 | 43.40681 | -74.58219 | 19929 ft | 438 kts | 86° |
| 2026-04-24 22:28 | 43.40477 | -74.54037 | 19928 ft | 439 kts | 86° |
| 2026-04-24 22:28 | 43.40270 | -74.49848 | 19924 ft | 439 kts | 86° |
| 2026-04-24 22:28 | 43.40060 | -74.45661 | 19928 ft | 439 kts | 86° |
| 2026-04-24 22:29 | 43.39639 | -74.37290 | 19926 ft | 439 kts | 85° |
| 2026-04-24 22:29 | 43.39431 | -74.33175 | 19939 ft | 435 kts | 87° |
| 2026-04-24 22:29 | 43.39216 | -74.29058 | 19930 ft | 432 kts | 87° |
| 2026-04-24 22:30 | 43.39003 | -74.24917 | 19933 ft | 433 kts | 87° |
| 2026-04-24 22:30 | 43.38789 | -74.20782 | 19933 ft | 434 kts | 87° |
| 2026-04-24 22:30 | 43.38571 | -74.16641 | 19933 ft | 434 kts | 87° |
| 2026-04-24 22:30 | 43.38350 | -74.12503 | 19931 ft | 434 kts | 87° |
| 2026-04-24 22:31 | 43.38131 | -74.08360 | 19935 ft | 434 kts | 87° |
| 2026-04-24 22:31 | 43.37911 | -74.04231 | 19942 ft | 427 kts | 87° |
| 2026-04-24 22:31 | 43.37689 | -74.00232 | 19961 ft | 418 kts | 87° |
| 2026-04-24 22:31 | 43.37480 | -73.96366 | 19934 ft | 403 kts | 88° |
| 2026-04-24 22:32 | 43.37277 | -73.92526 | 19934 ft | 405 kts | 88° |
| 2026-04-24 22:32 | 43.37069 | -73.88669 | 19937 ft | 404 kts | 88° |
| 2026-04-24 22:32 | 43.36854 | -73.84823 | 19942 ft | 405 kts | 89° |
| 2026-04-24 22:32 | 43.36637 | -73.80962 | 19946 ft | 403 kts | 89° |
| 2026-04-24 22:33 | 43.36423 | -73.77121 | 19946 ft | 405 kts | 88° |
| 2026-04-24 22:33 | 43.36208 | -73.73269 | 19945 ft | 403 kts | 89° |
| 2026-04-24 22:33 | 43.35990 | -73.69421 | 19948 ft | 405 kts | 89° |
| 2026-04-24 22:33 | 43.35770 | -73.65563 | 19948 ft | 405 kts | 89° |
| 2026-04-24 22:34 | 43.35553 | -73.61790 | 19962 ft | 401 kts | 89° |
| 2026-04-24 22:34 | 43.35331 | -73.57951 | 19958 ft | 402 kts | 89° |
| 2026-04-24 22:34 | 43.35111 | -73.54122 | 19961 ft | 402 kts | 89° |
| 2026-04-24 22:34 | 43.34888 | -73.50291 | 19960 ft | 402 kts | 89° |
| 2026-04-24 22:35 | 43.34663 | -73.46463 | 19961 ft | 402 kts | 89° |
| 2026-04-24 22:35 | 43.34437 | -73.42634 | 19962 ft | 402 kts | 89° |
| 2026-04-24 22:35 | 43.34210 | -73.38797 | 19958 ft | 403 kts | 89° |
| 2026-04-24 22:35 | 43.33981 | -73.34964 | 19959 ft | 403 kts | 89° |
| 2026-04-24 22:36 | 43.33755 | -73.31185 | 19961 ft | 402 kts | 89° |
| 2026-04-24 22:36 | 43.33523 | -73.27345 | 19961 ft | 405 kts | 89° |
| 2026-04-24 22:36 | 43.33290 | -73.23495 | 19960 ft | 404 kts | 89° |
| 2026-04-24 22:36 | 43.33055 | -73.19645 | 19962 ft | 404 kts | 89° |
| 2026-04-24 22:37 | 43.32819 | -73.15801 | 19960 ft | 404 kts | 89° |
| 2026-04-24 22:37 | 43.32582 | -73.11953 | 19964 ft | 404 kts | 89° |
| 2026-04-24 22:37 | 43.32344 | -73.08108 | 19952 ft | 405 kts | 89° |
| 2026-04-24 22:37 | 43.32103 | -73.04253 | 19961 ft | 405 kts | 89° |
| 2026-04-24 22:38 | 43.31862 | -73.00406 | 19957 ft | 405 kts | 89° |
| 2026-04-24 22:38 | 43.31622 | -72.96607 | 19953 ft | 404 kts | 89° |
| 2026-04-24 22:38 | 43.31379 | -72.92760 | 19955 ft | 407 kts | 89° |
| 2026-04-24 22:38 | 43.31134 | -72.88884 | 19954 ft | 407 kts | 89° |
| 2026-04-24 22:39 | 43.30885 | -72.85007 | 19956 ft | 408 kts | 89° |
| 2026-04-24 22:39 | 43.30635 | -72.81131 | 19955 ft | 408 kts | 89° |
| 2026-04-24 22:39 | 43.30383 | -72.77248 | 19950 ft | 407 kts | 88° |
| 2026-04-24 22:39 | 43.30131 | -72.73381 | 19951 ft | 407 kts | 88° |
| 2026-04-24 22:40 | 43.29878 | -72.69514 | 19957 ft | 407 kts | 88° |
| 2026-04-24 22:40 | 43.29627 | -72.65699 | 19955 ft | 407 kts | 88° |
| 2026-04-24 22:40 | 43.29372 | -72.61830 | 19958 ft | 407 kts | 88° |
| 2026-04-24 22:40 | 43.29114 | -72.57960 | 19949 ft | 409 kts | 88° |
| 2026-04-24 22:41 | 43.28855 | -72.54080 | 19949 ft | 409 kts | 88° |
| 2026-04-24 22:41 | 43.28595 | -72.50192 | 19952 ft | 409 kts | 88° |
| 2026-04-24 22:41 | 43.28333 | -72.46308 | 19952 ft | 409 kts | 88° |
| 2026-04-24 22:41 | 43.28069 | -72.42421 | 19952 ft | 409 kts | 88° |
| 2026-04-24 22:42 | 43.27804 | -72.38533 | 19949 ft | 409 kts | 88° |
| 2026-04-24 22:42 | 43.27542 | -72.34702 | 19951 ft | 409 kts | 88° |
| 2026-04-24 22:42 | 43.27274 | -72.30817 | 19951 ft | 409 kts | 88° |
| 2026-04-24 22:42 | 43.27005 | -72.26928 | 19953 ft | 410 kts | 88° |
| 2026-04-24 22:43 | 43.26735 | -72.23036 | 19951 ft | 411 kts | 88° |
| 2026-04-24 22:43 | 43.26462 | -72.19135 | 19954 ft | 411 kts | 88° |
| 2026-04-24 22:43 | 43.26188 | -72.15235 | 19956 ft | 411 kts | 88° |
| 2026-04-24 22:43 | 43.25913 | -72.11331 | 19953 ft | 411 kts | 88° |
| 2026-04-24 22:44 | 43.25641 | -72.07486 | 19953 ft | 411 kts | 88° |
| 2026-04-24 22:44 | 43.25362 | -72.03583 | 19950 ft | 410 kts | 88° |
| 2026-04-24 22:44 | 43.25083 | -71.99686 | 19952 ft | 413 kts | 88° |
| 2026-04-24 22:44 | 43.24801 | -71.95749 | 19950 ft | 415 kts | 88° |
| 2026-04-24 22:45 | 43.24516 | -71.91803 | 19777 ft | 414 kts | 89° |
| 2026-04-24 22:45 | 43.24228 | -71.87933 | 19116 ft | 406 kts | 88° |
| 2026-04-24 22:45 | 43.23952 | -71.84098 | 18418 ft | 406 kts | 89° |
| 2026-04-24 22:45 | 43.23672 | -71.80228 | 17661 ft | 405 kts | 89° |
| 2026-04-24 22:46 | 43.23388 | -71.76377 | 16933 ft | 407 kts | 89° |
| 2026-04-24 22:46 | 43.23100 | -71.72509 | 16176 ft | 408 kts | 89° |
| 2026-04-24 22:46 | 43.22816 | -71.68691 | 15408 ft | 408 kts | 90° |
| 2026-04-24 22:46 | 43.22528 | -71.64830 | 14606 ft | 407 kts | 90° |
| 2026-04-24 22:47 | 43.22238 | -71.60969 | 13790 ft | 406 kts | 90° |
| 2026-04-24 22:47 | 43.22033 | -71.57179 | 12933 ft | 386 kts | 84° |
| 2026-04-24 22:47 | 43.22228 | -71.53524 | 12137 ft | 388 kts | 80° |
| 2026-04-24 22:47 | 43.22464 | -71.49885 | 11369 ft | 380 kts | 81° |
| 2026-04-24 22:48 | 43.22695 | -71.46291 | 10961 ft | 378 kts | 81° |
| 2026-04-24 22:48 | 43.22918 | -71.42716 | 10818 ft | 378 kts | 81° |
| 2026-04-24 22:48 | 43.23136 | -71.39180 | 10685 ft | 376 kts | 81° |
| 2026-04-24 22:48 | 43.23355 | -71.35636 | 10498 ft | 360 kts | 82° |
| 2026-04-24 22:49 | 43.23550 | -71.32379 | 9992 ft | 329 kts | 82° |
| 2026-04-24 22:49 | 43.23735 | -71.29367 | 9400 ft | 305 kts | 82° |
| 2026-04-24 22:49 | 43.23908 | -71.26571 | 8880 ft | 284 kts | 82° |
| 2026-04-24 22:49 | 43.24068 | -71.23955 | 8432 ft | 268 kts | 81° |
| 2026-04-24 22:50 | 43.24223 | -71.21429 | 7984 ft | 268 kts | 81° |
| 2026-04-24 22:50 | 43.24380 | -71.18883 | 7530 ft | 267 kts | 82° |
| 2026-04-24 22:50 | 43.24530 | -71.16375 | 7088 ft | 267 kts | 82° |
| 2026-04-24 22:50 | 43.24679 | -71.13859 | 6646 ft | 259 kts | 82° |
| 2026-04-24 22:51 | 43.24827 | -71.11393 | 6199 ft | 262 kts | 82° |
| 2026-04-24 22:51 | 43.24975 | -71.08916 | 5746 ft | 262 kts | 82° |
| 2026-04-24 22:51 | 43.25120 | -71.06473 | 5273 ft | 254 kts | 82° |
| 2026-04-24 22:51 | 43.25264 | -71.04042 | 4846 ft | 256 kts | 82° |
| 2026-04-24 22:52 | 43.25409 | -71.01608 | 4410 ft | 256 kts | 82° |
| 2026-04-24 22:52 | 43.25497 | -70.99226 | 4073 ft | 243 kts | 91° |
| 2026-04-24 22:52 | 43.25008 | -70.97087 | 3770 ft | 228 kts | 120° |
| 2026-04-24 22:52 | 43.24007 | -70.95638 | 3494 ft | 192 kts | 145° |
| 2026-04-24 22:53 | 43.22970 | -70.94773 | 3268 ft | 167 kts | 148° |
| 2026-04-24 22:53 | 43.21996 | -70.93974 | 3043 ft | 159 kts | 148° |
| 2026-04-24 22:53 | 43.21044 | -70.93194 | 2899 ft | 164 kts | 147° |
| 2026-04-24 22:53 | 43.20094 | -70.92415 | 2683 ft | 154 kts | 147° |
| 2026-04-24 22:54 | 43.19170 | -70.91658 | 2490 ft | 150 kts | 148° |
| 2026-04-24 22:54 | 43.18263 | -70.90916 | 2284 ft | 152 kts | 147° |
| 2026-04-24 22:54 | 43.17364 | -70.90182 | 2074 ft | 149 kts | 146° |
| 2026-04-24 22:54 | 43.16486 | -70.89458 | 1869 ft | 145 kts | 146° |
| 2026-04-24 22:55 | 43.15636 | -70.88759 | 1682 ft | 142 kts | 145° |
| 2026-04-24 22:55 | 43.14784 | -70.88060 | 1482 ft | 142 kts | 146° |
| 2026-04-24 22:55 | 43.13990 | -70.87406 | 1296 ft | 135 kts | 148° |
| 2026-04-24 22:55 | 43.13195 | -70.86754 | 1103 ft | 135 kts | 147° |
| 2026-04-24 22:56 | 43.12386 | -70.86091 | 922 ft | 134 kts | 148° |
| 2026-04-24 22:56 | 43.11586 | -70.85439 | 721 ft | 137 kts | 149° |
| 2026-04-24 22:56 | 43.10769 | -70.84765 | 480 ft | 139 kts | 147° |
| 2026-04-24 22:56 | 43.09956 | -70.84087 | 366 ft | 133 kts | 147° |
| 2026-04-24 22:57 | 43.09172 | -70.83447 | 161 ft | 135 kts | 147° |
| 2026-04-24 22:57 | 43.08397 | -70.82809 | 98 ft | 115 kts | 148° |
| 2026-04-24 22:57 | 43.07925 | -70.82429 | 94 ft | 50 kts | 149° |
| 2026-04-24 22:57 | 43.07682 | -70.82230 | 95 ft | 37 kts | 149° |
| 2026-04-24 22:58 | 43.07492 | -70.82075 | 93 ft | 22 kts | 148° |
| 2026-04-24 22:58 | 43.07459 | -70.81985 | 96 ft | 11 kts | 69° |
| 2026-04-24 22:58 | 43.07510 | -70.81869 | 93 ft | 18 kts | 59° |
| 2026-04-24 22:58 | 43.07573 | -70.81734 | 95 ft | 13 kts | 43° |
| 2026-04-24 22:59 | 43.07644 | -70.81742 | 93 ft | 13 kts | 328° |
| 2026-04-24 22:59 | 43.07741 | -70.81824 | 94 ft | 19 kts | 329° |
| 2026-04-24 22:59 | 43.08069 | -70.82094 | 95 ft | 33 kts | 329° |
| 2026-04-24 23:00 | 43.08244 | -70.82237 | 96 ft | 27 kts | 329° |
| 2026-04-24 23:00 | 43.08357 | -70.82301 | 94 ft | 14 kts | 14° |
| 2026-04-24 23:00 | 43.08427 | -70.82214 | 95 ft | 13 kts | 14° |
| 2026-04-24 23:00 | 43.08462 | -70.82224 | 95 ft | 0 kts | 330° |